createdAt,value
2019-04-10T00:00:10.567Z,15.00
2019-04-10T00:02:13.729Z,14.60
2019-04-10T00:03:25.888Z,14.60
2019-04-10T00:05:18.102Z,13.90
2019-04-10T00:06:18.657Z,14.30
2019-04-10T00:08:22.509Z,14.70
2019-04-10T00:09:23.185Z,14.60
2019-04-10T00:11:27.000Z,14.60
2019-04-10T00:12:27.143Z,15.10
2019-04-10T00:14:31.507Z,13.70
2019-04-10T00:15:32.610Z,14.50
2019-04-10T00:17:35.681Z,14.00
2019-04-10T00:18:35.972Z,15.10
2019-04-10T00:20:28.992Z,14.40
2019-04-10T00:21:29.287Z,14.20
2019-04-10T00:23:33.389Z,14.20
2019-04-10T00:24:33.623Z,15.50
2019-04-10T00:26:37.785Z,14.80
2019-04-10T00:27:38.865Z,15.40
2019-04-10T00:29:42.543Z,14.50
2019-04-10T00:30:43.055Z,15.70
2019-04-10T00:32:46.600Z,14.70
2019-04-10T00:33:47.220Z,15.50
2019-04-10T00:35:51.957Z,15.10
2019-04-10T00:36:51.440Z,14.50
2019-04-10T00:38:55.913Z,15.30
2019-04-10T00:39:55.610Z,14.60
2019-04-10T00:42:00.785Z,14.70
2019-04-10T00:43:00.292Z,15.10
2019-04-10T00:45:04.163Z,14.80
2019-04-10T00:46:04.404Z,14.50
2019-04-10T00:48:08.568Z,14.80
2019-04-10T00:49:09.254Z,14.30
2019-04-10T00:51:13.134Z,14.40
2019-04-10T00:52:14.213Z,14.80
2019-04-10T00:54:18.179Z,14.90
2019-04-10T00:55:17.606Z,14.60
2019-04-10T00:57:21.761Z,15.80
2019-04-10T00:58:22.508Z,14.40
2019-04-10T01:00:15.059Z,15.30
2019-04-10T01:01:15.970Z,15.30
2019-04-10T01:03:19.450Z,15.80
2019-04-10T01:04:20.350Z,15.70
2019-04-10T01:06:24.132Z,15.80
2019-04-10T01:07:35.962Z,15.60
2019-04-10T01:09:29.109Z,15.90
2019-04-10T01:10:28.542Z,16.00
2019-04-10T01:12:32.622Z,15.90
2019-04-10T01:13:32.855Z,15.60
2019-04-10T01:15:36.995Z,16.20
2019-04-10T01:16:37.717Z,15.80
2019-04-10T01:18:41.628Z,15.70
2019-04-10T01:19:41.849Z,15.30
2019-04-10T01:21:46.448Z,15.90
2019-04-10T01:22:46.002Z,15.60
2019-04-10T01:24:50.317Z,15.90
2019-04-10T01:25:50.595Z,16.60
2019-04-10T01:27:54.574Z,15.30
2019-04-10T01:28:55.600Z,15.60
2019-04-10T01:30:59.163Z,17.20
2019-04-10T01:31:59.539Z,16.50
2019-04-10T01:34:03.360Z,15.90
2019-04-10T01:35:03.580Z,15.40
2019-04-10T01:37:08.313Z,16.00
2019-04-10T01:38:07.971Z,17.10
2019-04-10T01:40:01.046Z,16.20
2019-04-10T01:41:01.538Z,16.80
2019-04-10T01:43:11.513Z,16.70
2019-04-10T01:44:05.745Z,17.70
2019-04-10T01:46:10.332Z,17.40
2019-04-10T01:47:10.887Z,16.40
2019-04-10T01:49:14.213Z,17.50
2019-04-10T01:50:14.571Z,17.90
2019-04-10T01:52:18.590Z,17.80
2019-04-10T01:53:19.685Z,17.80
2019-04-10T01:55:25.719Z,17.20
2019-04-10T01:56:29.439Z,17.60
2019-04-10T01:58:27.416Z,17.60
2019-04-10T01:59:27.618Z,17.20
2019-04-10T02:01:32.529Z,18.60
2019-04-10T02:02:31.994Z,18.60
2019-04-10T02:04:36.155Z,18.80
2019-04-10T02:05:36.627Z,19.00
2019-04-10T02:07:40.532Z,17.50
2019-04-10T02:08:40.763Z,18.60
2019-04-10T02:10:34.279Z,19.50
2019-04-10T02:11:34.288Z,19.20
2019-04-10T02:13:39.253Z,19.50
2019-04-10T02:14:38.649Z,20.20
2019-04-10T02:16:43.223Z,19.90
2019-04-10T02:17:42.869Z,19.80
2019-04-10T02:19:48.014Z,20.30
2019-04-10T02:20:47.416Z,21.30
2019-04-10T02:22:51.927Z,19.90
2019-04-10T02:23:52.396Z,20.90
2019-04-10T02:25:56.923Z,21.10
2019-04-10T02:26:56.148Z,20.90
2019-04-10T02:29:00.204Z,21.40
2019-04-10T02:30:00.439Z,19.90
2019-04-10T02:32:04.745Z,21.30
2019-04-10T02:33:06.098Z,21.90
2019-04-10T02:35:12.381Z,22.30
2019-04-10T02:36:10.763Z,21.90
2019-04-10T02:38:32.775Z,23.20
2019-04-10T02:39:24.410Z,23.10
2019-04-10T02:41:19.206Z,22.30
2019-04-10T02:42:18.636Z,24.00
2019-04-10T02:44:22.918Z,23.70
2019-04-10T02:45:23.801Z,23.40
2019-04-10T02:47:26.609Z,25.80
2019-04-10T02:48:27.554Z,24.70
2019-04-10T02:50:20.761Z,24.80
2019-04-10T02:51:20.163Z,24.80
2019-04-10T02:53:25.598Z,24.60
2019-04-10T02:54:25.140Z,25.20
2019-04-10T02:56:28.642Z,24.90
2019-04-10T02:57:29.433Z,26.90
2019-04-10T02:59:33.498Z,25.70
2019-04-10T03:00:33.855Z,25.70
2019-04-10T03:02:38.778Z,26.60
2019-04-10T03:03:38.438Z,24.50
2019-04-10T03:05:42.679Z,24.60
2019-04-10T03:06:42.793Z,27.30
2019-04-10T03:09:04.866Z,27.10
2019-04-10T03:10:00.893Z,27.30
2019-04-10T03:11:51.922Z,24.50
2019-04-10T03:12:52.429Z,24.70
2019-04-10T03:14:55.192Z,24.10
2019-04-10T03:15:55.893Z,25.60
2019-04-10T03:17:59.348Z,25.10
2019-04-10T03:18:59.625Z,24.80
2019-04-10T03:21:04.774Z,24.60
2019-04-10T03:22:03.979Z,23.80
2019-04-10T03:24:08.117Z,23.70
2019-04-10T03:25:08.907Z,23.40
2019-04-10T03:27:12.514Z,23.30
2019-04-10T03:28:12.749Z,21.10
2019-04-10T03:30:07.430Z,22.20
2019-04-10T03:31:07.930Z,22.20
2019-04-10T03:33:14.275Z,21.20
2019-04-10T03:34:13.113Z,22.30
2019-04-10T03:36:15.597Z,22.60
2019-04-10T03:37:14.842Z,22.00
2019-04-10T03:39:18.993Z,22.50
2019-04-10T03:40:19.572Z,21.60
2019-04-10T03:42:23.394Z,22.10
2019-04-10T03:43:23.719Z,22.40
2019-04-10T03:45:28.563Z,22.90
2019-04-10T03:46:28.033Z,23.40
2019-04-10T03:48:33.335Z,23.80
2019-04-10T03:49:32.408Z,22.90
2019-04-10T03:51:36.713Z,24.20
2019-04-10T03:52:37.823Z,21.50
2019-04-10T03:54:40.945Z,22.10
2019-04-10T03:55:41.177Z,22.90
2019-04-10T03:57:45.341Z,23.10
2019-04-10T03:58:45.575Z,22.30
2019-04-10T04:00:38.665Z,24.50
2019-04-10T04:01:38.974Z,22.90
2019-04-10T04:03:43.037Z,24.00
2019-04-10T04:04:43.858Z,24.00
2019-04-10T04:06:48.163Z,24.00
2019-04-10T04:07:48.501Z,22.80
2019-04-10T04:09:51.803Z,24.70
2019-04-10T04:10:53.065Z,24.00
2019-04-10T04:12:57.182Z,22.60
2019-04-10T04:13:56.437Z,23.40
2019-04-10T04:16:00.597Z,24.10
2019-04-10T04:17:01.807Z,24.00
2019-04-10T04:19:05.921Z,24.70
2019-04-10T04:20:05.205Z,24.10
2019-04-10T04:22:09.372Z,24.80
2019-04-10T04:23:09.659Z,25.30
2019-04-10T04:25:14.777Z,25.80
2019-04-10T04:26:14.811Z,25.50
2019-04-10T04:28:18.890Z,26.80
2019-04-10T04:29:18.547Z,26.20
2019-04-10T04:31:22.895Z,27.40
2019-04-10T04:32:23.754Z,26.40
2019-04-10T04:34:27.273Z,26.80
2019-04-10T04:35:27.758Z,27.10
2019-04-10T04:37:31.317Z,26.90
2019-04-10T04:38:32.283Z,26.80
2019-04-10T04:40:24.633Z,27.10
2019-04-10T04:41:25.338Z,27.70
2019-04-10T04:43:29.060Z,26.70
2019-04-10T04:44:29.311Z,28.30
2019-04-10T04:46:34.520Z,27.50
2019-04-10T04:47:33.706Z,26.70
2019-04-10T04:49:38.340Z,26.00
2019-04-10T04:50:38.576Z,25.70
2019-04-10T04:52:43.513Z,26.10
2019-04-10T04:53:44.011Z,25.60
2019-04-10T04:55:47.121Z,26.60
2019-04-10T04:56:48.320Z,26.00
2019-04-10T04:58:51.797Z,26.60
2019-04-10T04:59:52.679Z,26.30
2019-04-10T05:01:56.990Z,25.20
2019-04-10T05:02:56.160Z,25.80
2019-04-10T05:05:00.419Z,25.70
2019-04-10T05:06:00.542Z,25.00
2019-04-10T05:08:05.897Z,25.10
2019-04-10T05:09:04.940Z,26.20
2019-04-10T05:11:09.852Z,26.80
2019-04-10T05:12:09.400Z,27.20
2019-04-10T05:14:13.486Z,26.90
2019-04-10T05:15:13.724Z,27.20
2019-04-10T05:17:18.282Z,27.40
2019-04-10T05:18:19.066Z,26.90
2019-04-10T05:20:11.243Z,27.30
2019-04-10T05:21:11.434Z,26.20
2019-04-10T05:23:16.063Z,27.60
2019-04-10T05:24:15.884Z,26.90
2019-04-10T05:26:20.797Z,26.60
2019-04-10T05:27:20.216Z,26.30
2019-04-10T05:29:25.036Z,24.40
2019-04-10T05:30:25.073Z,26.00
2019-04-10T05:32:28.758Z,25.80
2019-04-10T05:33:28.991Z,25.80
2019-04-10T05:35:33.159Z,26.90
2019-04-10T05:36:33.571Z,25.70
2019-04-10T05:38:37.713Z,24.70
2019-04-10T05:39:43.169Z,24.50
2019-04-10T05:41:41.968Z,24.10
2019-04-10T05:42:42.172Z,24.70
2019-04-10T05:44:46.340Z,25.00
2019-04-10T05:45:46.582Z,26.20
2019-04-10T05:47:50.796Z,26.60
2019-04-10T05:48:50.955Z,25.20
2019-04-10T05:50:54.017Z,25.30
2019-04-10T05:51:44.283Z,26.30
2019-04-10T05:53:51.059Z,24.70
2019-04-10T05:54:49.352Z,24.50
2019-04-10T05:56:52.826Z,27.30
2019-04-10T05:57:53.187Z,25.60
2019-04-10T05:59:57.224Z,24.90
2019-04-10T06:00:57.460Z,24.90
2019-04-10T06:03:01.625Z,27.20
2019-04-10T06:04:03.014Z,25.20
2019-04-10T06:06:06.253Z,24.70
2019-04-10T06:07:06.304Z,24.60
2019-04-10T06:09:10.505Z,26.00
2019-04-10T06:10:10.890Z,25.60
2019-04-10T06:12:14.914Z,24.60
2019-04-10T06:13:15.158Z,25.20
2019-04-10T06:15:19.338Z,26.80
2019-04-10T06:16:19.647Z,25.80
2019-04-10T06:18:23.864Z,25.00
2019-04-10T06:19:25.337Z,25.60
2019-04-10T06:21:28.747Z,25.60
2019-04-10T06:22:28.507Z,25.70
2019-04-10T06:24:32.521Z,24.70
2019-04-10T06:25:34.105Z,26.70
2019-04-10T06:27:36.908Z,23.50
2019-04-10T06:28:38.010Z,25.40
2019-04-10T06:30:30.248Z,25.30
2019-04-10T06:31:30.531Z,23.90
2019-04-10T06:33:34.649Z,25.10
2019-04-10T06:34:34.891Z,23.80
2019-04-10T06:36:39.635Z,24.20
2019-04-10T06:37:40.084Z,24.10
2019-04-10T06:39:45.718Z,24.40
2019-04-10T06:40:44.063Z,24.20
2019-04-10T06:42:52.043Z,23.80
2019-04-10T06:43:48.149Z,21.90
2019-04-10T06:45:52.435Z,22.30
2019-04-10T06:46:52.899Z,21.30
2019-04-10T06:48:56.781Z,21.90
2019-04-10T06:49:57.032Z,22.00
2019-04-10T06:52:02.172Z,20.50
2019-04-10T06:53:02.420Z,19.00
2019-04-10T06:55:06.595Z,21.60
2019-04-10T06:56:06.998Z,20.10
2019-04-10T06:58:11.662Z,19.50
2019-04-10T06:59:12.170Z,19.30
2019-04-10T07:01:16.577Z,20.30
2019-04-10T07:02:23.737Z,19.70
2019-04-10T07:04:23.865Z,17.70
2019-04-10T07:05:20.143Z,19.00
2019-04-10T07:07:30.820Z,18.60
2019-04-10T07:08:26.016Z,18.20
2019-04-10T07:10:25.887Z,18.40
2019-04-10T07:11:19.910Z,19.10
2019-04-10T07:13:22.009Z,19.60
2019-04-10T07:14:22.561Z,18.10
2019-04-10T07:16:29.732Z,18.70
2019-04-10T07:17:27.125Z,20.00
2019-04-10T07:19:30.904Z,18.30
2019-04-10T07:20:31.613Z,19.20
2019-04-10T07:22:35.296Z,18.90
2019-04-10T07:23:36.486Z,19.10
2019-04-10T07:25:42.465Z,19.70
2019-04-10T07:26:43.432Z,19.20
2019-04-10T07:28:46.385Z,19.60
2019-04-10T07:29:44.644Z,18.00
2019-04-10T07:31:50.795Z,18.60
2019-04-10T07:32:50.809Z,18.90
2019-04-10T07:34:59.199Z,17.90
2019-04-10T07:35:56.503Z,17.90
2019-04-10T07:37:59.589Z,18.70
2019-04-10T07:38:59.212Z,18.00
2019-04-10T07:41:06.288Z,17.90
2019-04-10T07:42:04.142Z,17.60
2019-04-10T07:44:08.040Z,17.60
2019-04-10T07:45:07.573Z,17.10
2019-04-10T07:47:11.783Z,18.70
2019-04-10T07:48:12.862Z,18.20
2019-04-10T07:50:08.147Z,16.70
2019-04-10T07:51:05.419Z,17.70
2019-04-10T07:53:10.460Z,15.80
2019-04-10T07:54:09.833Z,16.40
2019-04-10T07:56:18.011Z,17.00
2019-04-10T07:57:14.266Z,17.00
2019-04-10T07:59:20.368Z,16.50
2019-04-10T08:00:20.141Z,17.00
2019-04-10T08:02:25.507Z,16.90
2019-04-10T08:03:25.230Z,16.70
2019-04-10T08:05:29.613Z,15.10
2019-04-10T08:06:29.562Z,17.00
2019-04-10T08:08:34.015Z,16.90
2019-04-10T08:09:33.981Z,15.60
2019-04-10T08:11:38.243Z,16.20
2019-04-10T08:12:46.020Z,15.70
2019-04-10T08:14:42.608Z,16.10
2019-04-10T08:15:43.311Z,14.50
2019-04-10T08:17:50.534Z,15.50
2019-04-10T08:18:47.792Z,15.20
2019-04-10T08:20:40.357Z,16.40
2019-04-10T08:21:40.601Z,16.30
2019-04-10T08:23:44.779Z,14.20
2019-04-10T08:24:47.181Z,15.70
2019-04-10T08:26:49.297Z,16.30
2019-04-10T08:27:50.114Z,15.20
2019-04-10T08:29:54.727Z,17.30
2019-04-10T08:30:54.656Z,17.20
2019-04-10T08:33:01.284Z,16.90
2019-04-10T08:33:59.029Z,16.00
2019-04-10T08:36:03.237Z,16.80
2019-04-10T08:37:03.747Z,16.50
2019-04-10T08:39:06.893Z,17.70
2019-04-10T08:40:07.492Z,17.50
2019-04-10T08:42:11.301Z,17.10
2019-04-10T08:43:11.786Z,16.90
2019-04-10T08:45:16.747Z,17.70
2019-04-10T08:46:15.940Z,17.10
2019-04-10T08:48:20.119Z,17.40
2019-04-10T08:49:21.353Z,17.70
2019-04-10T08:51:25.529Z,17.60
2019-04-10T08:52:24.765Z,17.70
2019-04-10T08:54:28.994Z,17.30
2019-04-10T08:55:30.245Z,18.20
2019-04-10T08:57:34.197Z,17.90
2019-04-10T08:58:33.623Z,18.10
2019-04-10T09:00:26.879Z,17.90
2019-04-10T09:01:26.957Z,18.30
2019-04-10T09:03:31.140Z,19.00
2019-04-10T09:04:31.383Z,18.30
2019-04-10T09:06:35.643Z,19.90
2019-04-10T09:07:35.972Z,18.30
2019-04-10T09:09:39.994Z,18.30
2019-04-10T09:10:40.660Z,17.40
2019-04-10T09:12:45.095Z,17.50
2019-04-10T09:13:44.702Z,16.40
2019-04-10T09:15:49.903Z,16.80
2019-04-10T09:16:49.115Z,16.60
2019-04-10T09:18:53.823Z,16.30
2019-04-10T09:19:54.062Z,17.00
2019-04-10T09:21:57.721Z,17.00
2019-04-10T09:23:15.553Z,16.30
2019-04-10T09:25:02.838Z,16.90
2019-04-10T09:26:02.389Z,16.10
2019-04-10T09:28:06.573Z,16.40
2019-04-10T09:29:06.840Z,16.90
2019-04-10T09:31:10.983Z,17.00
2019-04-10T09:32:11.277Z,16.30
2019-04-10T09:34:15.835Z,17.90
2019-04-10T09:35:16.356Z,17.30
2019-04-10T09:37:19.909Z,17.20
2019-04-10T09:38:20.966Z,17.70
2019-04-10T09:40:14.071Z,18.40
2019-04-10T09:41:14.006Z,18.90
2019-04-10T09:43:17.794Z,20.70
2019-04-10T09:44:18.652Z,19.60
2019-04-10T09:46:22.004Z,20.10
2019-04-10T09:47:22.774Z,20.80
2019-04-10T09:49:37.702Z,19.30
2019-04-10T09:50:27.571Z,19.10
2019-04-10T09:52:31.993Z,18.70
2019-04-10T09:53:31.097Z,19.40
2019-04-10T09:55:36.246Z,19.40
2019-04-10T09:56:36.394Z,18.10
2019-04-10T09:58:40.701Z,18.10
2019-04-10T09:59:41.296Z,18.30
2019-04-10T10:01:45.105Z,17.60
2019-04-10T10:02:45.352Z,18.30
2019-04-10T10:04:50.446Z,17.30
2019-04-10T10:05:50.925Z,16.80
2019-04-10T10:07:56.090Z,17.30
2019-04-10T10:08:54.379Z,15.90
2019-04-10T10:10:58.383Z,16.60
2019-04-10T10:11:58.911Z,16.40
2019-04-10T10:14:04.011Z,16.20
2019-04-10T10:15:03.058Z,16.00
2019-04-10T10:17:07.222Z,15.10
2019-04-10T10:18:07.467Z,14.40
2019-04-10T10:20:01.699Z,14.50
2019-04-10T10:21:01.866Z,14.00
2019-04-10T10:23:05.426Z,14.50
2019-04-10T10:24:05.267Z,14.30
2019-04-10T10:26:09.994Z,14.40
2019-04-10T10:27:09.694Z,13.30
2019-04-10T10:29:13.917Z,15.00
2019-04-10T10:30:14.194Z,14.90
2019-04-10T10:32:19.206Z,14.00
2019-04-10T10:33:18.608Z,13.70
2019-04-10T10:35:23.125Z,13.60
2019-04-10T10:36:34.667Z,14.20
2019-04-10T10:38:27.443Z,13.90
2019-04-10T10:39:28.581Z,13.90
2019-04-10T10:41:31.974Z,12.20
2019-04-10T10:42:32.084Z,12.80
2019-04-10T10:44:36.312Z,14.70
2019-04-10T10:45:36.739Z,14.90
2019-04-10T10:47:40.740Z,14.10
2019-04-10T10:48:41.852Z,15.40
2019-04-10T10:50:34.193Z,14.70
2019-04-10T10:51:35.039Z,15.10
2019-04-10T10:53:38.659Z,14.80
2019-04-10T10:54:38.992Z,15.60
2019-04-10T10:56:43.001Z,15.50
2019-04-10T10:57:43.608Z,15.90
2019-04-10T10:59:47.432Z,16.00
2019-04-10T11:00:47.675Z,16.70
2019-04-10T11:02:51.965Z,16.00
2019-04-10T11:03:52.079Z,14.90
2019-04-10T11:05:56.259Z,15.50
2019-04-10T11:06:59.959Z,15.30
2019-04-10T11:09:01.863Z,15.30
2019-04-10T11:10:01.289Z,13.80
2019-04-10T11:12:06.548Z,15.40
2019-04-10T11:13:06.477Z,15.70
2019-04-10T11:15:10.110Z,14.80
2019-04-10T11:16:09.760Z,15.60
2019-04-10T11:18:13.928Z,17.30
2019-04-10T11:19:15.261Z,14.80
2019-04-10T11:21:18.352Z,15.50
2019-04-10T11:22:22.629Z,15.00
2019-04-10T11:24:22.881Z,16.00
2019-04-10T11:25:23.785Z,15.30
2019-04-10T11:27:28.052Z,14.40
2019-04-10T11:28:30.273Z,14.70
2019-04-10T11:30:20.669Z,13.10
2019-04-10T11:31:21.133Z,13.70
2019-04-10T11:33:25.089Z,13.90
2019-04-10T11:34:26.408Z,13.40
2019-04-10T11:36:30.006Z,12.80
2019-04-10T11:37:37.462Z,13.20
2019-04-10T11:39:37.306Z,13.80
2019-04-10T11:40:34.449Z,14.00
2019-04-10T11:42:40.077Z,13.20
2019-04-10T11:43:38.452Z,13.90
2019-04-10T11:45:46.547Z,13.50
2019-04-10T11:46:43.848Z,13.10
2019-04-10T11:48:47.060Z,13.70
2019-04-10T11:49:48.909Z,13.30
2019-04-10T11:51:53.641Z,13.00
2019-04-10T11:52:53.362Z,13.60
2019-04-10T11:55:06.032Z,13.30
2019-04-10T11:55:59.166Z,14.20
2019-04-10T11:58:00.295Z,13.70
2019-04-10T11:59:01.658Z,12.80
2019-04-10T12:01:08.501Z,12.10
2019-04-10T12:04:10.772Z,11.80
2019-04-10T12:05:13.783Z,11.80
2019-04-10T12:07:49.165Z,11.30
2019-04-10T12:08:40.175Z,12.10
2019-04-10T12:11:10.961Z,10.90
2019-04-10T12:13:12.342Z,11.10
2019-04-10T12:14:11.569Z,10.80
2019-04-10T12:16:16.740Z,10.60
2019-04-10T12:17:16.103Z,10.60
2019-04-10T12:19:22.396Z,10.70
2019-04-10T12:20:20.859Z,10.50
2019-04-10T12:22:24.602Z,9.90
2019-04-10T12:23:25.138Z,10.20
2019-04-10T12:25:29.126Z,9.90
2019-04-10T12:26:29.263Z,10.10
2019-04-10T12:28:33.903Z,9.60
2019-04-10T12:29:33.701Z,10.30
2019-04-10T12:31:37.870Z,10.60
2019-04-10T12:32:38.985Z,10.80
2019-04-10T12:34:42.487Z,11.00
2019-04-10T12:35:42.552Z,11.90
2019-04-10T12:37:57.288Z,11.70
2019-04-10T12:38:47.792Z,12.50
2019-04-10T12:40:40.563Z,12.10
2019-04-10T12:41:41.540Z,11.80
2019-04-10T12:43:45.164Z,12.30
2019-04-10T12:44:44.845Z,11.50
2019-04-10T12:46:49.185Z,12.30
2019-04-10T12:47:50.252Z,12.60
2019-04-10T12:49:53.982Z,11.40
2019-04-10T12:50:55.074Z,11.70
2019-04-10T12:52:58.847Z,11.60
2019-04-10T12:53:58.372Z,11.60
2019-04-10T12:56:02.480Z,11.20
2019-04-10T12:57:02.729Z,11.90
2019-04-10T12:59:07.005Z,11.60
2019-04-10T13:00:07.250Z,12.20
2019-04-10T13:02:12.345Z,11.60
2019-04-10T13:03:11.684Z,11.80
2019-04-10T13:05:16.735Z,12.30
2019-04-10T13:06:16.117Z,12.20
2019-04-10T13:08:22.440Z,11.20
2019-04-10T13:09:20.589Z,11.80
2019-04-10T13:11:24.779Z,12.60
2019-04-10T13:12:25.103Z,12.80
2019-04-10T13:14:29.186Z,13.60
2019-04-10T13:15:29.746Z,13.20
2019-04-10T13:17:33.639Z,14.10
2019-04-10T13:18:33.884Z,13.10
2019-04-10T13:20:27.037Z,12.30
2019-04-10T13:21:28.422Z,12.10
2019-04-10T13:23:31.507Z,12.30
2019-04-10T13:24:31.748Z,11.80
2019-04-10T13:26:35.934Z,11.70
2019-04-10T13:27:36.914Z,12.80
2019-04-10T13:29:40.544Z,14.50
2019-04-10T13:30:48.931Z,14.20
2019-04-10T13:32:44.823Z,13.40
2019-04-10T13:33:45.071Z,13.70
2019-04-10T13:35:49.233Z,12.80
2019-04-10T13:36:49.474Z,13.30
2019-04-10T13:38:54.726Z,11.70
2019-04-10T13:39:53.894Z,12.80
2019-04-10T13:41:58.827Z,13.70
2019-04-10T13:42:58.317Z,13.20
2019-04-10T13:45:02.853Z,13.90
2019-04-10T13:46:02.716Z,15.20
2019-04-10T13:48:08.075Z,14.10
2019-04-10T13:49:07.136Z,14.20
2019-04-10T13:51:11.296Z,13.70
2019-04-10T13:52:11.986Z,13.00
2019-04-10T13:54:16.525Z,13.40
2019-04-10T13:55:16.892Z,13.20
2019-04-10T13:57:20.248Z,12.20
2019-04-10T13:58:21.326Z,12.10
2019-04-10T14:00:13.482Z,11.70
2019-04-10T14:01:13.729Z,12.40
2019-04-10T14:03:19.200Z,11.90
2019-04-10T14:04:18.766Z,11.80
2019-04-10T14:06:22.315Z,11.40
2019-04-10T14:07:22.559Z,11.20
2019-04-10T14:09:35.741Z,10.80
2019-04-10T14:10:28.064Z,11.40
2019-04-10T14:12:31.256Z,11.50
2019-04-10T14:13:31.729Z,11.80
2019-04-10T14:15:35.879Z,11.70
2019-04-10T14:16:36.986Z,13.30
2019-04-10T14:18:41.029Z,11.60
2019-04-10T14:19:40.249Z,11.10
2019-04-10T14:21:45.035Z,11.60
2019-04-10T14:22:44.652Z,11.90
2019-04-10T14:24:49.794Z,12.20
2019-04-10T14:25:49.783Z,11.50
2019-04-10T14:27:54.332Z,12.40
2019-04-10T14:28:53.590Z,11.60
2019-04-10T14:30:47.326Z,12.00
2019-04-10T14:31:46.970Z,11.00
2019-04-10T14:33:51.020Z,11.20
2019-04-10T14:34:51.251Z,11.10
2019-04-10T14:36:55.418Z,11.80
2019-04-10T14:37:56.813Z,11.40
2019-04-10T14:39:59.942Z,10.90
2019-04-10T14:41:01.097Z,11.60
2019-04-10T14:43:05.266Z,10.90
2019-04-10T14:44:04.530Z,11.30
2019-04-10T14:46:08.698Z,10.80
2019-04-10T14:47:08.935Z,11.30
2019-04-10T14:49:13.213Z,12.10
2019-04-10T14:50:13.687Z,10.30
2019-04-10T14:52:17.531Z,11.60
2019-04-10T14:53:17.775Z,11.90
2019-04-10T14:55:22.111Z,11.50
2019-04-10T14:56:22.209Z,12.20
2019-04-10T14:58:28.147Z,11.50
2019-04-10T14:59:26.633Z,9.90
2019-04-10T15:01:30.794Z,9.80
2019-04-10T15:02:31.037Z,9.60
2019-04-10T15:04:35.332Z,10.00
2019-04-10T15:05:44.692Z,10.80
2019-04-10T15:07:39.628Z,10.00
2019-04-10T15:08:39.872Z,9.80
2019-04-10T15:10:32.980Z,10.30
2019-04-10T15:11:33.224Z,10.20
2019-04-10T15:13:38.075Z,10.70
2019-04-10T15:14:37.655Z,10.90
2019-04-10T15:16:52.471Z,11.00
2019-04-10T15:17:42.236Z,11.20
2019-04-10T15:19:46.917Z,11.20
2019-04-10T15:20:47.255Z,11.10
2019-04-10T15:22:50.657Z,11.20
2019-04-10T15:23:51.128Z,11.40
2019-04-10T15:25:55.473Z,11.10
2019-04-10T15:26:55.608Z,11.20
2019-04-10T15:29:00.286Z,10.00
2019-04-10T15:29:59.937Z,10.50
2019-04-10T15:32:04.259Z,10.20
2019-04-10T15:33:04.520Z,9.60
2019-04-10T15:35:08.408Z,10.00
2019-04-10T15:36:09.442Z,9.30
2019-04-10T15:38:13.742Z,10.30
2019-04-10T15:39:12.979Z,9.60
2019-04-10T15:41:17.159Z,10.00
2019-04-10T15:42:17.401Z,10.00
2019-04-10T15:44:21.851Z,10.60
2019-04-10T15:45:21.849Z,10.10
2019-04-10T15:47:27.026Z,10.60
2019-04-10T15:48:27.174Z,10.00
2019-04-10T15:50:19.366Z,11.20
2019-04-10T15:51:20.395Z,10.60
2019-04-10T15:53:24.412Z,10.30
2019-04-10T15:54:23.987Z,11.50
2019-04-10T15:56:28.166Z,9.60
2019-04-10T15:57:28.944Z,10.10
2019-04-10T15:59:32.582Z,8.90
2019-04-10T16:00:33.042Z,9.30
2019-04-10T16:02:36.983Z,8.60
2019-04-10T16:03:37.225Z,9.00
2019-04-10T16:05:41.832Z,8.60
2019-04-10T16:06:41.845Z,9.00
2019-04-10T16:08:45.810Z,8.70
2019-04-10T16:09:51.641Z,9.20
2019-04-10T16:11:50.262Z,8.80
2019-04-10T16:12:50.475Z,8.50
2019-04-10T16:14:54.906Z,8.50
2019-04-10T16:15:54.892Z,7.90
2019-04-10T16:17:59.049Z,8.00
2019-04-10T16:18:59.327Z,8.50
2019-04-10T16:21:04.127Z,8.60
2019-04-10T16:22:03.696Z,8.40
2019-04-10T16:24:08.770Z,8.20
2019-04-10T16:25:08.096Z,8.40
2019-04-10T16:27:12.267Z,8.00
2019-04-10T16:28:12.640Z,8.20
2019-04-10T16:30:06.015Z,8.10
2019-04-10T16:31:05.912Z,8.30
2019-04-10T16:33:11.197Z,8.80
2019-04-10T16:34:10.315Z,8.40
2019-04-10T16:36:14.489Z,8.80
2019-04-10T16:37:14.740Z,8.10
2019-04-10T16:39:19.687Z,8.60
2019-04-10T16:40:19.170Z,8.50
2019-04-10T16:42:24.461Z,8.10
2019-04-10T16:43:24.386Z,8.30
2019-04-10T16:45:28.663Z,8.40
2019-04-10T16:46:28.028Z,8.70
2019-04-10T16:48:32.177Z,8.90
2019-04-10T16:49:32.939Z,9.20
2019-04-10T16:51:36.655Z,9.20
2019-04-10T16:52:36.923Z,9.10
2019-04-10T16:54:41.104Z,9.00
2019-04-10T16:55:41.354Z,9.30
2019-04-10T16:57:45.539Z,10.10
2019-04-10T16:58:45.812Z,9.70
2019-04-10T17:00:39.738Z,10.10
2019-04-10T17:01:39.274Z,10.20
2019-04-10T17:03:44.205Z,9.40
2019-04-10T17:04:43.799Z,9.80
2019-04-10T17:06:47.910Z,9.10
2019-04-10T17:07:48.151Z,9.30
2019-04-10T17:09:53.245Z,9.20
2019-04-10T17:10:52.564Z,9.50
2019-04-10T17:12:56.719Z,9.00
2019-04-10T17:13:57.238Z,9.10
2019-04-10T17:16:01.725Z,10.00
2019-04-10T17:17:02.116Z,9.50
2019-04-10T17:19:05.715Z,9.50
2019-04-10T17:20:07.025Z,9.40
2019-04-10T17:22:11.016Z,9.60
2019-04-10T17:23:10.308Z,10.00
2019-04-10T17:25:14.710Z,10.30
2019-04-10T17:26:14.971Z,10.70
2019-04-10T17:28:21.670Z,10.60
2019-04-10T17:29:19.175Z,10.60
2019-04-10T17:31:24.526Z,11.80
2019-04-10T17:32:23.611Z,12.50
2019-04-10T17:34:27.786Z,12.90
2019-04-10T17:35:28.021Z,13.20
2019-04-10T17:37:32.189Z,13.30
2019-04-10T17:38:32.426Z,14.10
2019-04-10T17:40:33.867Z,14.50
2019-04-10T17:41:26.107Z,14.60
2019-04-10T17:43:30.236Z,14.40
2019-04-10T17:44:31.621Z,14.10
2019-04-10T17:46:35.304Z,14.00
2019-04-10T17:47:34.878Z,14.20
2019-04-10T17:49:39.368Z,15.20
2019-04-10T17:50:39.637Z,15.00
2019-04-10T17:52:45.022Z,14.50
2019-04-10T17:53:45.286Z,14.80
2019-04-10T17:55:47.899Z,14.60
2019-04-10T17:56:48.523Z,14.80
2019-04-10T17:58:52.436Z,14.80
2019-04-10T17:59:52.771Z,14.90
2019-04-10T18:01:56.993Z,16.20
2019-04-10T18:02:57.259Z,15.30
2019-04-10T18:05:02.371Z,15.10
2019-04-10T18:06:01.555Z,15.30
2019-04-10T18:08:05.722Z,15.80
2019-04-10T18:09:05.954Z,14.80
2019-04-10T18:11:10.101Z,15.70
2019-04-10T18:12:10.337Z,15.30
2019-04-10T18:14:15.310Z,16.00
2019-04-10T18:15:15.736Z,15.90
2019-04-10T18:17:18.930Z,15.40
2019-04-10T18:18:19.849Z,17.60
2019-04-10T18:20:12.224Z,16.40
2019-04-10T18:21:12.689Z,16.80
2019-04-10T18:23:17.560Z,16.80
2019-04-10T18:24:16.960Z,16.10
2019-04-10T18:26:21.146Z,16.30
2019-04-10T18:27:22.477Z,15.60
2019-04-10T18:29:25.562Z,16.00
2019-04-10T18:30:25.965Z,15.60
2019-04-10T18:32:29.916Z,16.10
2019-04-10T18:33:30.917Z,16.10
2019-04-10T18:35:35.261Z,16.20
2019-04-10T18:36:34.569Z,16.40
2019-04-10T18:38:38.717Z,16.80
2019-04-10T18:39:38.951Z,15.90
2019-04-10T18:41:43.096Z,16.30
2019-04-10T18:42:43.468Z,16.40
2019-04-10T18:44:47.498Z,17.10
2019-04-10T18:45:59.598Z,15.70
2019-04-10T18:47:52.326Z,16.60
2019-04-10T18:48:52.155Z,18.00
2019-04-10T18:50:45.467Z,17.30
2019-04-10T18:51:45.903Z,17.40
2019-04-10T18:53:49.766Z,17.20
2019-04-10T18:54:50.037Z,17.30
2019-04-10T18:56:54.115Z,16.70
2019-04-10T18:57:54.933Z,16.70
2019-04-10T18:59:58.815Z,17.60
2019-04-10T19:00:58.837Z,17.40
2019-04-10T19:03:03.410Z,16.00
2019-04-10T19:04:04.401Z,16.80
2019-04-10T19:06:07.936Z,16.50
2019-04-10T19:07:07.537Z,16.50
2019-04-10T19:09:18.484Z,17.00
2019-04-10T19:10:12.901Z,17.20
2019-04-10T19:12:16.751Z,17.00
2019-04-10T19:13:17.246Z,17.70
2019-04-10T19:15:20.476Z,16.40
2019-04-10T19:16:21.468Z,17.90
2019-04-10T19:18:25.838Z,16.40
2019-04-10T19:19:26.071Z,17.90
2019-04-10T19:21:29.428Z,18.20
2019-04-10T19:22:30.667Z,17.80
2019-04-10T19:24:34.062Z,16.50
2019-04-10T19:25:34.708Z,17.20
2019-04-10T19:27:38.105Z,16.30
2019-04-10T19:28:41.915Z,16.50
2019-04-10T19:30:31.503Z,16.90
2019-04-10T19:31:34.174Z,16.80
2019-04-10T19:33:35.906Z,18.00
2019-04-10T19:34:37.202Z,17.10
2019-04-10T19:36:40.392Z,16.20
2019-04-10T19:37:40.881Z,17.50
2019-04-10T19:39:44.806Z,18.00
2019-04-10T19:40:45.847Z,17.60
2019-04-10T19:42:49.380Z,17.00
2019-04-10T19:43:50.450Z,17.20
2019-04-10T19:45:54.306Z,16.30
2019-04-10T19:46:53.914Z,16.90